KDBN/DBN METAR and TAF weather

Enter ICAO airport designator
Station Type Date Time Source
KDBN METAR 2022/01/27 23:55 UTC NOAA

KDBN 272355Z AUTO 08003KT 10SM CLR 03/M03 A3026 RMK AO2


Station Type Date Time Source
KDBN Decoded METAR 2022/01/27 23:55 UTC NOAA

Dublin, W H 'Bud' Barron Airport, GA, United States (KDBN) 32-33-52N 082-59-06W
Jan 27, 2022 - 06:55 PM EST / 2022.01.27 2355 UTC
Wind: from the E (080 degrees) at 3 MPH (3 KT):0
Visibility: 10 mile(s):0
Sky conditions: clear
Temperature: 37 F (3 C)
Dew Point: 26 F (-3 C)
Relative Humidity: 64%
Pressure (altimeter): 30.26 in. Hg (1024 hPa)
ob: KDBN 272355Z AUTO 08003KT 10SM CLR 03/M03 A3026 RMK AO2
cycle: 0

Station Type Date Time Source
KDBN TAF UTC NOAA

Error!

Example: see airport list